Kerrick, Texas
Current Conditions -  °F | °C
As of 10:53 PM on Wednesday 22 Oct 2014 (Local Time) from KDHT Reporting Station
Haze Haze  
Wind Chill: 61°   Ceiling: Unl
Heat Index: 61°   Visibility: 6mi
Dew Point: 56°   Wind: 13mph
Humidity: 83%   Direction: 180°S
Pressure: 30.12"   Gusts: NA
Location:  36.5°N, 102.24°W
Report Text: KDHT 230353Z AUTO 18011KT 6SM HZ CLR 16/13 A3012 RMK AO2 SLP160 T01610133
Loading
Personal Weather Stations






























Interactive Weather Map
Tropical Storm Tracking
New forecast layout! Learn more

10-Day Weather Forecast

Advertisements
Track Severe Weather on mobile